createdAt,value
2022-09-15T00:01:03.119Z,75.00
2022-09-15T00:03:29.785Z,75.05
2022-09-15T00:05:56.628Z,74.72
2022-09-15T00:08:24.238Z,74.85
2022-09-15T00:10:58.291Z,74.82
2022-09-15T00:13:25.835Z,74.87
2022-09-15T00:15:53.259Z,74.95
2022-09-15T00:18:20.307Z,75.11
2022-09-15T00:20:46.999Z,75.30
2022-09-15T00:23:15.964Z,75.36
2022-09-15T00:25:53.311Z,75.49
2022-09-15T00:28:22.696Z,75.03
2022-09-15T00:30:54.655Z,75.30
2022-09-15T00:33:23.163Z,75.55
2022-09-15T00:35:53.326Z,75.53
2022-09-15T00:38:20.939Z,75.92
2022-09-15T00:40:52.724Z,75.97
2022-09-15T00:43:42.264Z,75.93
2022-09-15T00:46:10.258Z,76.17
2022-09-15T00:48:43.203Z,75.96
2022-09-15T00:51:14.500Z,75.76
2022-09-15T00:53:42.287Z,75.56
2022-09-15T00:56:14.439Z,75.18
2022-09-15T00:58:50.135Z,74.85
2022-09-15T01:01:17.227Z,74.46
2022-09-15T01:03:44.177Z,74.65
2022-09-15T01:06:50.191Z,74.56
2022-09-15T01:09:26.846Z,75.05
2022-09-15T01:11:53.526Z,75.16
2022-09-15T01:14:20.066Z,75.64
2022-09-15T01:17:03.780Z,75.08
2022-09-15T01:19:46.535Z,74.63
2022-09-15T01:22:34.889Z,74.18
2022-09-15T01:25:51.296Z,73.95
2022-09-15T01:29:12.807Z,73.70
2022-09-15T01:32:16.346Z,74.18
2022-09-15T01:35:00.688Z,74.04
2022-09-15T01:37:36.840Z,74.00
2022-09-15T01:40:05.185Z,73.89
2022-09-15T01:42:34.797Z,73.96
2022-09-15T01:45:09.182Z,73.68
2022-09-15T01:47:37.406Z,73.46
2022-09-15T01:50:13.669Z,72.84
2022-09-15T01:52:48.801Z,72.71
2022-09-15T01:55:25.184Z,72.55
2022-09-15T01:57:51.903Z,72.80
2022-09-15T02:00:18.474Z,72.61
2022-09-15T02:02:58.733Z,72.91
2022-09-15T02:05:44.895Z,72.56
2022-09-15T02:08:31.618Z,72.73
2022-09-15T02:11:14.663Z,72.99
2022-09-15T02:14:11.400Z,72.84
2022-09-15T02:16:43.675Z,73.33
2022-09-15T02:19:31.090Z,72.93
2022-09-15T02:22:11.006Z,73.30
2022-09-15T02:24:49.374Z,73.26
2022-09-15T02:27:25.228Z,73.92
2022-09-15T02:30:00.995Z,74.11
2022-09-15T02:32:31.134Z,74.51
2022-09-15T02:35:01.678Z,74.97
2022-09-15T02:37:28.590Z,74.76
2022-09-15T02:39:58.965Z,75.22
2022-09-15T02:42:32.007Z,74.82
2022-09-15T02:45:01.331Z,75.17
2022-09-15T02:47:28.706Z,75.52
2022-09-15T02:49:55.926Z,75.16
2022-09-15T02:52:22.549Z,75.49
2022-09-15T02:54:50.298Z,75.58
2022-09-15T02:57:17.052Z,75.59
2022-09-15T03:00:02.000Z,75.63
2022-09-15T03:02:28.816Z,75.72
2022-09-15T03:04:55.336Z,75.34
2022-09-15T03:07:21.767Z,74.92
2022-09-15T03:09:48.203Z,74.84
2022-09-15T03:12:14.658Z,75.18
2022-09-15T03:14:41.106Z,75.01
2022-09-15T03:17:07.546Z,75.05
2022-09-15T03:19:33.981Z,75.06
2022-09-15T03:22:00.447Z,74.92
2022-09-15T03:24:26.955Z,74.67
2022-09-15T03:26:53.411Z,74.06
2022-09-15T03:29:19.939Z,73.99
2022-09-15T03:31:46.442Z,73.56
2022-09-15T03:34:13.001Z,73.47
2022-09-15T03:36:39.611Z,73.61
2022-09-15T03:39:06.088Z,73.63
2022-09-15T03:41:32.542Z,73.69
2022-09-15T03:43:59.080Z,74.05
2022-09-15T03:46:25.554Z,74.44
2022-09-15T03:48:51.992Z,74.78
2022-09-15T03:51:18.479Z,75.10
2022-09-15T03:53:44.948Z,75.40
2022-09-15T03:56:22.776Z,75.03
2022-09-15T03:58:49.963Z,74.81
2022-09-15T04:01:18.952Z,74.58
2022-09-15T04:03:50.910Z,74.96
2022-09-15T04:06:20.779Z,74.54
2022-09-15T04:08:48.424Z,74.70
2022-09-15T04:11:16.310Z,75.12
2022-09-15T04:13:43.937Z,75.39
2022-09-15T04:16:14.935Z,75.01
2022-09-15T04:18:41.678Z,75.34
2022-09-15T04:21:15.861Z,75.03
2022-09-15T04:23:44.227Z,75.58
2022-09-15T04:26:24.251Z,75.54
2022-09-15T04:28:50.684Z,75.56
2022-09-15T04:31:18.459Z,75.70
2022-09-15T04:33:46.832Z,75.79
2022-09-15T04:36:18.163Z,76.04
2022-09-15T04:38:45.654Z,76.25
2022-09-15T04:41:13.070Z,76.46
2022-09-15T04:43:40.418Z,76.02
2022-09-15T04:46:07.610Z,75.47
2022-09-15T04:48:35.385Z,74.69
2022-09-15T04:51:12.268Z,74.74
2022-09-15T04:53:39.008Z,75.11
2022-09-15T04:56:17.473Z,75.76
2022-09-15T04:58:51.376Z,75.55
2022-09-15T05:01:25.546Z,75.53
2022-09-15T05:03:52.877Z,75.38
2022-09-15T05:06:25.235Z,75.07
2022-09-15T05:08:55.819Z,74.99
2022-09-15T05:11:23.519Z,75.15
2022-09-15T05:13:50.107Z,75.08
2022-09-15T05:16:20.581Z,75.03
2022-09-15T05:18:49.695Z,75.28
2022-09-15T05:21:21.860Z,75.17
2022-09-15T05:23:50.257Z,74.65
2022-09-15T05:26:22.750Z,74.38
2022-09-15T05:28:50.067Z,74.58
2022-09-15T05:31:20.685Z,75.19
2022-09-15T05:33:49.569Z,75.39
2022-09-15T05:36:18.428Z,75.10
2022-09-15T05:38:45.215Z,74.70
2022-09-15T05:41:17.538Z,75.04
2022-09-15T05:43:46.516Z,75.19
2022-09-15T05:46:14.662Z,74.93
2022-09-15T05:48:41.205Z,74.68
2022-09-15T05:51:07.921Z,74.26
2022-09-15T05:53:36.167Z,74.38
2022-09-15T05:56:07.583Z,74.73
2022-09-15T05:58:34.457Z,74.63
2022-09-15T06:01:13.204Z,74.38
2022-09-15T06:03:40.598Z,74.01
2022-09-15T06:06:07.527Z,74.12
2022-09-15T06:08:54.053Z,73.79
2022-09-15T06:11:27.587Z,73.52
2022-09-15T06:13:54.112Z,73.62
2022-09-15T06:16:24.502Z,73.06
2022-09-15T06:18:53.359Z,73.39
2022-09-15T06:21:27.722Z,73.42
2022-09-15T06:23:55.495Z,73.55
2022-09-15T06:26:22.371Z,73.23
2022-09-15T06:28:55.555Z,73.13
2022-09-15T06:31:24.019Z,72.92
2022-09-15T06:33:53.103Z,72.73
2022-09-15T06:36:23.100Z,72.96
2022-09-15T06:38:50.726Z,72.96
2022-09-15T06:41:17.753Z,73.10
2022-09-15T06:43:45.367Z,72.96
2022-09-15T06:46:16.487Z,73.45
2022-09-15T06:48:48.021Z,73.46
2022-09-15T06:51:17.387Z,73.43
2022-09-15T06:53:44.971Z,73.49
2022-09-15T06:56:15.402Z,73.25
2022-09-15T06:58:43.898Z,73.18
2022-09-15T07:01:18.481Z,73.07
2022-09-15T07:03:45.009Z,73.07
2022-09-15T07:06:14.807Z,72.98
2022-09-15T07:08:42.272Z,73.14
2022-09-15T07:11:10.859Z,73.19
2022-09-15T07:13:37.637Z,73.43
2022-09-15T07:16:08.455Z,72.86
2022-09-15T07:18:39.710Z,73.55
2022-09-15T07:21:13.954Z,73.42
2022-09-15T07:23:41.741Z,73.43
2022-09-15T07:26:22.340Z,73.34
2022-09-15T07:28:56.182Z,73.17
2022-09-15T07:31:27.081Z,72.91
2022-09-15T07:33:53.835Z,72.72
2022-09-15T07:36:21.379Z,72.44
2022-09-15T07:38:49.895Z,72.36
2022-09-15T07:41:20.583Z,72.26
2022-09-15T07:43:50.506Z,72.66
2022-09-15T07:46:19.174Z,72.44
2022-09-15T07:48:47.505Z,72.50
2022-09-15T07:51:15.000Z,71.77
2022-09-15T07:53:43.249Z,71.44
2022-09-15T07:56:09.769Z,71.57
2022-09-15T07:58:36.221Z,71.65
2022-09-15T08:01:11.471Z,71.50
2022-09-15T08:03:43.301Z,71.10
2022-09-15T08:06:10.917Z,71.66
2022-09-15T08:08:39.693Z,71.33
2022-09-15T08:11:18.272Z,71.03
2022-09-15T08:13:47.841Z,71.23
2022-09-15T08:16:18.963Z,71.30
2022-09-15T08:18:45.856Z,71.18
2022-09-15T08:21:17.474Z,70.90
2022-09-15T08:23:44.404Z,70.75
2022-09-15T08:26:14.310Z,70.92
2022-09-15T08:28:42.418Z,71.04
2022-09-15T08:31:12.466Z,70.41
2022-09-15T08:33:44.555Z,71.12
2022-09-15T08:36:13.159Z,70.64
2022-09-15T08:38:41.478Z,70.25
2022-09-15T08:41:17.171Z,69.99
2022-09-15T08:44:26.511Z,69.77
2022-09-15T08:47:14.378Z,69.64
2022-09-15T08:50:10.478Z,69.78
2022-09-15T08:53:13.905Z,69.09
2022-09-15T08:55:46.825Z,69.52
2022-09-15T08:58:17.782Z,69.17
2022-09-15T09:00:48.554Z,68.77
2022-09-15T09:04:04.543Z,68.26
2022-09-15T09:06:52.361Z,69.02
2022-09-15T09:09:34.527Z,68.39
2022-09-15T09:12:34.717Z,68.25
2022-09-15T09:15:32.681Z,68.13
2022-09-15T09:18:25.815Z,67.55
2022-09-15T09:21:24.044Z,67.01
2022-09-15T09:24:22.019Z,67.34
2022-09-15T09:29:36.651Z,65.83
2022-09-15T09:32:04.209Z,65.51
2022-09-15T09:34:47.900Z,64.94
2022-09-15T09:37:17.027Z,65.51
2022-09-15T09:39:43.577Z,65.87
2022-09-15T09:42:18.195Z,66.06
2022-09-15T09:44:46.143Z,65.67
2022-09-15T09:47:13.231Z,65.95
2022-09-15T09:49:48.326Z,65.88
2022-09-15T09:52:34.235Z,66.40
2022-09-15T09:55:26.924Z,66.01
2022-09-15T09:57:54.647Z,65.91
2022-09-15T10:00:40.272Z,64.09
2022-09-15T10:03:29.254Z,63.24
2022-09-15T10:06:20.518Z,64.29
2022-09-15T10:09:08.783Z,64.56
2022-09-15T10:11:43.415Z,64.23
2022-09-15T10:14:40.480Z,64.98
2022-09-15T10:17:18.797Z,65.42
2022-09-15T10:19:59.028Z,65.41
2022-09-15T10:22:37.384Z,64.31
2022-09-15T10:25:23.720Z,64.98
2022-09-15T10:28:09.843Z,65.08
2022-09-15T10:30:37.166Z,64.94
2022-09-15T10:33:24.723Z,63.21
2022-09-15T10:35:54.476Z,64.01
2022-09-15T10:38:49.775Z,63.14
2022-09-15T10:41:37.582Z,63.45
2022-09-15T10:44:36.658Z,63.33
2022-09-15T10:47:18.434Z,64.15
2022-09-15T10:50:18.931Z,62.87
2022-09-15T10:53:55.581Z,61.52
2022-09-15T10:56:34.963Z,61.95
2022-09-15T10:59:34.078Z,60.96
2022-09-15T11:02:27.042Z,61.96
2022-09-15T11:05:12.568Z,61.58
2022-09-15T11:08:14.070Z,59.38
2022-09-15T11:11:23.031Z,60.20
2022-09-15T11:14:27.543Z,60.82
2022-09-15T11:17:22.372Z,61.25
2022-09-15T11:20:22.971Z,60.39
2022-09-15T11:23:11.409Z,61.10
2022-09-15T11:25:50.771Z,61.20
2022-09-15T11:28:45.089Z,61.54
2022-09-15T11:31:24.214Z,61.17
2022-09-15T11:34:06.898Z,61.49
2022-09-15T11:36:51.147Z,61.35
2022-09-15T11:39:29.871Z,61.39
2022-09-15T11:42:14.050Z,60.49
2022-09-15T11:44:45.134Z,61.40
2022-09-15T11:47:26.022Z,60.87
2022-09-15T11:50:03.323Z,61.26
2022-09-15T11:53:08.280Z,60.14
2022-09-15T11:55:47.081Z,60.28
2022-09-15T11:58:34.595Z,59.68
2022-09-15T12:01:12.718Z,60.37
2022-09-15T12:03:52.646Z,60.31
2022-09-15T12:09:30.419Z,61.22
2022-09-15T12:12:05.776Z,60.75
2022-09-15T12:14:43.411Z,59.95
2022-09-15T12:17:28.760Z,60.11
2022-09-15T12:20:17.284Z,60.48
2022-09-15T12:22:59.083Z,60.01
2022-09-15T12:26:01.211Z,58.83
2022-09-15T12:28:42.340Z,57.39
2022-09-15T12:31:41.298Z,54.72
2022-09-15T12:34:38.324Z,55.74
2022-09-15T12:37:14.525Z,55.66
2022-09-15T12:39:46.937Z,56.29
2022-09-15T12:42:31.241Z,54.93
2022-09-15T12:45:22.491Z,55.31
2022-09-15T12:47:54.911Z,55.73
2022-09-15T12:50:38.314Z,55.21
2022-09-15T12:53:23.263Z,55.00
2022-09-15T12:55:58.342Z,55.23
2022-09-15T12:58:42.021Z,55.71
2022-09-15T13:01:26.940Z,54.80
2022-09-15T13:03:57.766Z,55.65
2022-09-15T13:06:29.603Z,55.62
2022-09-15T13:09:01.895Z,55.76
2022-09-15T13:11:36.707Z,55.46
2022-09-15T13:14:10.514Z,56.29
2022-09-15T13:17:06.911Z,55.13
2022-09-15T13:19:33.285Z,56.83
2022-09-15T13:22:11.830Z,57.16
2022-09-15T13:25:14.593Z,56.20
2022-09-15T13:27:58.637Z,57.39
2022-09-15T13:30:56.793Z,57.69
2022-09-15T13:40:48.860Z,57.56
2022-09-15T13:43:53.410Z,59.02
2022-09-15T13:46:39.473Z,59.02
2022-09-15T13:49:54.504Z,58.95
2022-09-15T13:52:22.280Z,58.99
2022-09-15T13:55:14.472Z,59.00
2022-09-15T14:00:56.657Z,59.48
2022-09-15T14:03:36.863Z,59.24
2022-09-15T14:06:13.560Z,59.42
2022-09-15T14:08:43.755Z,59.91
2022-09-15T14:11:21.537Z,60.33
2022-09-15T14:13:51.366Z,60.27
2022-09-15T14:16:28.451Z,61.01
2022-09-15T14:18:58.432Z,61.27
2022-09-15T14:21:29.503Z,61.03
2022-09-15T14:24:03.350Z,61.19
2022-09-15T14:26:33.320Z,61.47
2022-09-15T14:29:03.688Z,61.59
2022-09-15T14:31:33.996Z,60.90
2022-09-15T14:34:02.494Z,60.75
2022-09-15T14:36:32.684Z,60.24
2022-09-15T14:39:10.515Z,59.84
2022-09-15T14:41:40.598Z,60.01
2022-09-15T14:47:28.473Z,59.53
2022-09-15T14:50:19.605Z,58.52
2022-09-15T14:53:08.228Z,58.01
2022-09-15T14:56:05.623Z,58.29
2022-09-15T14:58:46.259Z,58.86
2022-09-15T15:01:31.285Z,58.27
2022-09-15T15:04:16.415Z,58.15
2022-09-15T15:07:05.342Z,58.39
2022-09-15T15:09:51.122Z,59.32
2022-09-15T15:12:42.047Z,59.03
2022-09-15T15:15:12.321Z,59.91
2022-09-15T15:17:51.584Z,59.47
2022-09-15T15:20:23.855Z,59.23
2022-09-15T15:23:11.924Z,60.89
2022-09-15T15:25:39.266Z,62.23
2022-09-15T15:28:06.544Z,63.01
2022-09-15T15:30:46.546Z,63.28
2022-09-15T15:33:27.408Z,63.37
2022-09-15T15:36:04.305Z,63.82
2022-09-15T15:38:41.718Z,64.15
2022-09-15T15:41:33.420Z,64.31
2022-09-15T15:44:23.725Z,64.45
2022-09-15T15:47:03.506Z,65.15
2022-09-15T15:49:32.749Z,65.19
2022-09-15T15:52:01.684Z,65.17
2022-09-15T15:54:28.670Z,64.88
2022-09-15T15:56:55.582Z,64.76
2022-09-15T15:59:22.110Z,64.94
2022-09-15T16:01:53.042Z,65.53
2022-09-15T16:04:19.702Z,65.49
2022-09-15T16:06:47.005Z,65.81
2022-09-15T16:09:17.322Z,65.82
2022-09-15T16:11:43.842Z,66.29
2022-09-15T16:14:14.164Z,66.12
2022-09-15T16:16:40.907Z,65.72
2022-09-15T16:19:08.393Z,65.40
2022-09-15T16:21:42.315Z,66.00
2022-09-15T16:24:15.933Z,66.11
2022-09-15T16:26:43.070Z,66.06
2022-09-15T16:29:10.005Z,66.32
2022-09-15T16:31:37.444Z,65.77
2022-09-15T16:34:04.002Z,65.77
2022-09-15T16:36:34.893Z,65.62
2022-09-15T16:39:01.345Z,65.39
2022-09-15T16:41:27.833Z,65.55
2022-09-15T16:43:55.860Z,65.12
2022-09-15T16:46:22.603Z,65.95
2022-09-15T16:48:49.067Z,66.01
2022-09-15T16:51:29.517Z,65.79
2022-09-15T16:53:57.785Z,66.01
2022-09-15T16:56:24.307Z,66.06
2022-09-15T16:58:58.854Z,66.49
2022-09-15T17:01:26.353Z,66.56
2022-09-15T17:03:52.859Z,66.74
2022-09-15T17:06:19.399Z,66.64
2022-09-15T17:08:45.955Z,66.03
2022-09-15T17:11:17.043Z,65.78
2022-09-15T17:13:44.770Z,65.55
2022-09-15T17:16:14.800Z,66.01
2022-09-15T17:18:41.466Z,65.95
2022-09-15T17:21:11.585Z,65.26
2022-09-15T17:23:42.846Z,65.55
2022-09-15T17:26:20.819Z,65.64
2022-09-15T17:28:47.625Z,65.65
2022-09-15T17:31:20.899Z,66.00
2022-09-15T17:33:49.722Z,65.84
2022-09-15T17:36:16.722Z,65.53
2022-09-15T17:38:45.212Z,66.00
2022-09-15T17:41:15.258Z,65.88
2022-09-15T17:43:41.852Z,66.32
2022-09-15T17:46:08.984Z,66.19
2022-09-15T17:48:38.485Z,66.57
2022-09-15T17:51:07.032Z,66.78
2022-09-15T17:53:33.548Z,66.95
2022-09-15T17:56:00.204Z,67.05
2022-09-15T17:58:26.834Z,67.13
2022-09-15T18:00:54.208Z,67.40
2022-09-15T18:03:29.964Z,67.41
2022-09-15T18:05:59.450Z,67.64
2022-09-15T18:08:27.492Z,68.02
2022-09-15T18:10:54.404Z,67.93
2022-09-15T18:13:24.166Z,68.08
2022-09-15T18:15:50.986Z,67.75
2022-09-15T18:18:21.522Z,68.20
2022-09-15T18:20:53.009Z,68.63
2022-09-15T18:23:25.554Z,68.62
2022-09-15T18:25:52.723Z,68.96
2022-09-15T18:28:19.758Z,68.83
2022-09-15T18:30:49.778Z,68.78
2022-09-15T18:33:25.702Z,68.64
2022-09-15T18:35:58.850Z,68.55
2022-09-15T18:38:25.834Z,68.62
2022-09-15T18:40:55.849Z,68.34
2022-09-15T18:43:26.653Z,68.36
2022-09-15T18:45:59.706Z,68.12
2022-09-15T18:48:26.557Z,68.22
2022-09-15T18:50:53.346Z,68.99
2022-09-15T18:53:19.876Z,69.49
2022-09-15T18:55:46.320Z,70.01
2022-09-15T18:58:13.423Z,70.04
2022-09-15T19:00:40.504Z,69.83
2022-09-15T19:03:09.434Z,69.72
2022-09-15T19:05:36.953Z,70.44
2022-09-15T19:08:04.357Z,70.56
2022-09-15T19:10:31.117Z,70.71
2022-09-15T19:12:57.655Z,70.75
2022-09-15T19:15:24.281Z,70.29
2022-09-15T19:17:51.722Z,70.10
2022-09-15T19:20:18.751Z,70.76
2022-09-15T19:22:46.027Z,70.76
2022-09-15T19:25:12.673Z,70.62
2022-09-15T19:27:40.183Z,70.80
2022-09-15T19:30:09.998Z,70.36
2022-09-15T19:32:38.281Z,70.30
2022-09-15T19:35:06.359Z,70.50
2022-09-15T19:37:38.129Z,70.49
2022-09-15T19:40:09.502Z,70.69
2022-09-15T19:42:40.626Z,71.00
2022-09-15T19:45:09.590Z,70.46
2022-09-15T19:47:36.826Z,70.67
2022-09-15T19:50:05.574Z,70.72
2022-09-15T19:52:32.461Z,70.69
2022-09-15T19:54:58.951Z,70.70
2022-09-15T19:57:25.459Z,71.10
2022-09-15T19:59:51.899Z,70.67
2022-09-15T20:02:18.699Z,70.76
2022-09-15T20:04:45.375Z,70.60
2022-09-15T20:07:12.509Z,70.17
2022-09-15T20:09:39.299Z,70.02
2022-09-15T20:12:05.962Z,70.37
2022-09-15T20:14:32.417Z,70.06
2022-09-15T20:17:01.137Z,70.30
2022-09-15T20:19:28.498Z,70.55
2022-09-15T20:21:55.188Z,71.15
2022-09-15T20:24:23.636Z,72.06
2022-09-15T20:26:51.098Z,72.00
2022-09-15T20:29:17.858Z,71.40
2022-09-15T20:31:44.394Z,71.73
2022-09-15T20:34:10.847Z,71.86
2022-09-15T20:36:38.915Z,71.74
2022-09-15T20:39:12.866Z,72.19
2022-09-15T20:41:41.886Z,71.67
2022-09-15T20:44:11.611Z,72.23
2022-09-15T20:46:38.191Z,72.21
2022-09-15T20:49:04.973Z,72.17
2022-09-15T20:51:33.452Z,72.00
2022-09-15T20:54:03.221Z,71.69
2022-09-15T20:56:32.831Z,71.17
2022-09-15T20:59:00.435Z,71.12
2022-09-15T21:01:36.605Z,71.22
2022-09-15T21:04:04.007Z,71.28
2022-09-15T21:06:31.519Z,71.33
2022-09-15T21:08:58.488Z,71.54
2022-09-15T21:11:27.554Z,71.73
2022-09-15T21:13:55.481Z,71.99
2022-09-15T21:16:26.015Z,71.94
2022-09-15T21:18:52.797Z,72.36
2022-09-15T21:21:26.194Z,72.20
2022-09-15T21:24:00.151Z,72.02
2022-09-15T21:26:30.824Z,71.80
2022-09-15T21:28:57.544Z,71.49
2022-09-15T21:31:30.901Z,71.52
2022-09-15T21:33:59.342Z,71.79
2022-09-15T21:36:30.617Z,71.82
2022-09-15T21:38:59.419Z,72.39
2022-09-15T21:41:32.493Z,72.04
2022-09-15T21:44:00.731Z,72.41
2022-09-15T21:46:31.085Z,72.31
2022-09-15T21:49:00.195Z,72.13
2022-09-15T21:51:29.775Z,72.45
2022-09-15T21:53:59.099Z,72.85
2022-09-15T21:56:28.086Z,72.75
2022-09-15T21:58:54.813Z,73.25
2022-09-15T22:01:31.263Z,72.91
2022-09-15T22:04:01.699Z,72.67
2022-09-15T22:06:40.069Z,72.37
2022-09-15T22:09:12.952Z,71.62
2022-09-15T22:11:39.668Z,72.00
2022-09-15T22:14:10.405Z,72.05
2022-09-15T22:16:39.660Z,71.72
2022-09-15T22:19:12.303Z,71.83
2022-09-15T22:21:41.677Z,72.25
2022-09-15T22:24:12.580Z,72.35
2022-09-15T22:26:41.418Z,72.51
2022-09-15T22:29:07.921Z,72.34
2022-09-15T22:31:35.232Z,72.12
2022-09-15T22:34:02.609Z,72.13
2022-09-15T22:36:31.307Z,71.65
2022-09-15T22:39:05.018Z,71.54
2022-09-15T22:41:36.423Z,72.45
2022-09-15T22:44:05.457Z,72.35
2022-09-15T22:46:32.673Z,72.73
2022-09-15T22:48:59.667Z,72.68
2022-09-15T22:51:26.209Z,73.15
2022-09-15T22:53:54.630Z,72.81
2022-09-15T22:56:21.425Z,72.53
2022-09-15T22:58:49.836Z,72.68
2022-09-15T23:01:23.586Z,72.90
2022-09-15T23:04:02.005Z,72.81
2022-09-15T23:06:33.487Z,72.79
2022-09-15T23:09:08.889Z,73.20
2022-09-15T23:11:39.654Z,73.12
2022-09-15T23:14:15.152Z,72.95
2022-09-15T23:16:42.965Z,73.19
2022-09-15T23:19:13.264Z,73.32
2022-09-15T23:21:40.183Z,73.53
2022-09-15T23:24:08.301Z,73.65
2022-09-15T23:26:34.812Z,73.10
2022-09-15T23:29:01.286Z,72.52
2022-09-15T23:31:27.833Z,72.63
2022-09-15T23:33:54.329Z,72.64
2022-09-15T23:36:21.104Z,72.45
2022-09-15T23:38:48.992Z,72.95
2022-09-15T23:41:17.565Z,73.06
2022-09-15T23:43:45.113Z,72.77
2022-09-15T23:46:11.850Z,73.21
2022-09-15T23:48:38.419Z,73.47
2022-09-15T23:51:05.538Z,73.23
2022-09-15T23:53:32.037Z,73.79
2022-09-15T23:55:59.797Z,73.56
2022-09-15T23:58:26.951Z,73.69
